Time;durP1;ratioP1;P1;durP2;ratioP2;P2;SDS_P1;SDS_P2;PMS_P1;PMS_P2;Temp;Humidity;BMP_temperature;BMP_pressure;BME280_temperature;BME280_humidity;BME280_pressure;Samples;Min_cycle;Max_cycle;Signal;HPM_P1;HPM_P2
2022/03/31 00:00:22;;;;;;;11.50;10.27;;;;;21.40;98983.00;;;;2078937;28;20229;-49
2022/03/31 00:01:22;;;;;;;11.90;10.43;;;;;21.30;98987.00;;;;2078627;28;20212;-49
2022/03/31 00:02:23;;;;;;;10.23;9.13;;;;;21.30;99001.00;;;;2078863;28;20717;-48
2022/03/31 00:03:23;;;;;;;14.00;10.30;;;;;21.30;98996.00;;;;2078871;28;21364;-49
2022/03/31 00:04:23;;;;;;;10.33;9.30;;;;;21.30;98990.00;;;;2078764;28;20233;-49
2022/03/31 00:05:24;;;;;;;10.20;8.90;;;;;21.40;98988.00;;;;2077469;28;20221;-48
2022/03/31 00:06:24;;;;;;;11.00;9.90;;;;;21.30;98991.00;;;;2070614;28;20225;-49
2022/03/31 00:07:25;;;;;;;10.63;9.43;;;;;21.30;98985.00;;;;2070527;28;20225;-48
2022/03/31 00:08:25;;;;;;;11.43;9.70;;;;;21.30;98987.00;;;;2070584;28;20206;-49
2022/03/31 00:09:25;;;;;;;10.60;9.50;;;;;21.30;98994.00;;;;2070351;28;20222;-49
2022/03/31 00:10:48;;;;;;;10.50;9.40;;;;;21.30;98991.00;;;;2070465;28;20317;-50
2022/03/31 00:11:48;;;;;;;9.93;8.80;;;;;21.30;98982.00;;;;2075525;28;20275;-49
2022/03/31 00:12:49;;;;;;;11.40;9.57;;;;;21.30;98983.00;;;;2078674;28;20752;-49
2022/03/31 00:13:49;;;;;;;11.30;9.70;;;;;21.30;98980.00;;;;2078820;28;20244;-49
2022/03/31 00:14:49;;;;;;;11.10;9.90;;;;;21.30;98980.00;;;;2078742;28;20220;-49
2022/03/31 00:15:50;;;;;;;11.80;9.70;;;;;21.30;98974.00;;;;2077984;28;20301;-49
2022/03/31 00:16:50;;;;;;;11.70;9.30;;;;;21.30;98976.00;;;;2078655;28;20221;-49
2022/03/31 00:17:51;;;;;;;11.10;9.63;;;;;21.30;98974.00;;;;2078735;28;20221;-49
2022/03/31 00:18:51;;;;;;;12.13;9.50;;;;;21.30;98981.00;;;;2079024;28;20260;-48
2022/03/31 00:19:51;;;;;;;10.00;8.97;;;;;21.30;98969.00;;;;2072634;28;21039;-49
2022/03/31 00:20:52;;;;;;;10.67;9.03;;;;;21.30;98975.00;;;;2075628;28;20588;-49
2022/03/31 00:21:52;;;;;;;9.37;8.40;;;;;21.30;98979.00;;;;2077762;28;20561;-49
2022/03/31 00:22:52;;;;;;;10.20;9.10;;;;;21.30;98975.00;;;;2071032;28;20626;-49
2022/03/31 00:23:53;;;;;;;9.37;8.37;;;;;21.30;98974.00;;;;2070537;28;20222;-49
2022/03/31 00:24:53;;;;;;;11.53;8.57;;;;;21.30;98975.00;;;;2070563;28;20249;-49
2022/03/31 00:25:54;;;;;;;10.70;8.80;;;;;21.30;98972.00;;;;2069810;28;20556;-49
2022/03/31 00:26:54;;;;;;;9.70;8.33;;;;;21.30;98976.00;;;;2070351;28;20701;-49
2022/03/31 00:27:57;;;;;;;9.17;8.23;;;;;21.30;98974.00;;;;2070501;28;20237;-49
2022/03/31 00:28:57;;;;;;;10.63;9.07;;;;;21.20;98969.00;;;;2070486;28;20308;-48
2022/03/31 00:29:58;;;;;;;10.07;8.63;;;;;21.20;98968.00;;;;2070422;28;20222;-49
2022/03/31 00:30:58;;;;;;;8.47;7.63;;;;;21.20;98965.00;;;;2070440;28;20288;-49
2022/03/31 00:31:58;;;;;;;9.00;8.07;;;;;21.20;98970.00;;;;2069893;28;20304;-49
2022/03/31 00:32:59;;;;;;;9.20;8.27;;;;;21.30;98958.00;;;;2070316;28;20706;-48
2022/03/31 00:34:00;;;;;;;9.03;7.90;;;;;21.20;98966.00;;;;2073307;28;20245;-48
2022/03/31 00:35:00;;;;;;;9.60;8.60;;;;;21.20;98964.00;;;;2078431;28;20502;-48
2022/03/31 00:36:00;;;;;;;8.27;7.47;;;;;21.20;98960.00;;;;2076910;28;20582;-53
2022/03/31 00:37:01;;;;;;;11.37;7.83;;;;;21.20;98960.00;;;;2078524;28;20438;-49
2022/03/31 00:38:01;;;;;;;8.57;7.60;;;;;21.20;98961.00;;;;2077448;28;20483;-49
2022/03/31 00:40:21;;;;;;;9.10;7.95;;;;;21.20;98964.00;;;;2078036;28;20591;-48
2022/03/31 00:41:23;;;;;;;9.93;7.87;;;;;21.20;98954.00;;;;2078033;28;20217;-49
2022/03/31 00:42:23;;;;;;;8.35;7.47;;;;;21.20;98964.00;;;;2077506;28;20252;-49
2022/03/31 00:43:23;;;;;;;8.73;7.83;;;;;21.20;98958.00;;;;2077599;28;20206;-49
2022/03/31 00:44:24;;;;;;;8.60;7.07;;;;;21.20;98957.00;;;;2078268;28;20592;-49
2022/03/31 00:45:28;;;;;;;9.20;7.33;;;;;21.20;98962.00;;;;2077066;28;20623;-49
2022/03/31 00:46:29;;;;;;;7.55;6.55;;;;;21.20;98862.00;;;;2078186;28;20224;-49
2022/03/31 00:47:29;;;;;;;8.30;7.43;;;;;21.20;98955.00;;;;2077727;28;20583;-49
2022/03/31 00:48:29;;;;;;;9.50;8.10;;;;;21.20;98956.00;;;;2068912;28;20310;-49
2022/03/31 00:49:32;;;;;;;9.87;7.30;;;;;21.20;98955.00;;;;2069424;28;20305;-48
2022/03/31 00:50:33;;;;;;;9.10;7.50;;;;;21.20;98945.00;;;;2078161;28;20624;-48
2022/03/31 00:51:34;;;;;;;7.85;7.05;;;;;21.20;98891.00;;;;2077762;28;20228;-51
2022/03/31 00:52:35;;;;;;;8.00;7.20;;;;;21.20;98956.00;;;;2078480;28;20642;-48
2022/03/31 00:53:35;;;;;;;8.30;7.30;;;;;21.20;98958.00;;;;2078331;28;20274;-48
2022/03/31 00:54:36;;;;;;;9.00;7.00;;;;;21.20;98961.00;;;;2078305;28;20209;-48
2022/03/31 00:55:36;;;;;;;9.27;7.80;;;;;21.20;98955.00;;;;2071324;28;20222;-48
2022/03/31 00:56:37;;;;;;;8.10;6.90;;;;;21.20;98953.00;;;;2077273;28;20279;-48
2022/03/31 00:57:37;;;;;;;8.10;7.30;;;;;21.20;98952.00;;;;2070444;28;20214;-48
2022/03/31 00:58:37;;;;;;;7.00;6.40;;;;;21.20;98948.00;;;;2074803;28;20217;-48
2022/03/31 00:59:38;;;;;;;7.43;6.70;;;;;21.20;98944.00;;;;2071994;28;20232;-48
2022/03/31 01:00:38;;;;;;;7.23;6.40;;;;;21.20;98953.00;;;;2073265;28;20209;-48
2022/03/31 01:01:39;;;;;;;7.83;6.80;;;;;21.20;98940.00;;;;2070707;28;20213;-48
2022/03/31 01:02:39;;;;;;;7.83;6.80;;;;;21.20;98949.00;;;;2070489;28;20214;-48
2022/03/31 01:03:40;;;;;;;7.57;6.87;;;;;21.20;98951.00;;;;2070285;28;20268;-49
2022/03/31 01:04:40;;;;;;;7.90;7.00;;;;;21.20;98948.00;;;;2070306;28;20226;-49
2022/03/31 01:05:41;;;;;;;8.30;7.50;;;;;21.20;98937.00;;;;2064496;28;20228;-49
2022/03/31 01:06:43;;;;;;;6.90;6.20;;;;;21.20;98942.00;;;;2077787;28;20210;-48
2022/03/31 01:07:44;;;;;;;7.40;6.60;;;;;21.20;98939.00;;;;2073050;28;20225;-48
2022/03/31 01:08:44;;;;;;;7.30;6.40;;;;;21.20;98943.00;;;;2070485;28;20679;-48
2022/03/31 01:09:44;;;;;;;7.70;6.90;;;;;21.10;98932.00;;;;2069951;28;20203;-48
2022/03/31 01:10:46;;;;;;;7.40;6.70;;;;;21.20;98942.00;;;;2070403;28;20253;-49
2022/03/31 01:11:47;;;;;;;7.50;6.75;;;;;21.10;98941.00;;;;2070226;28;20206;-49
2022/03/31 01:12:47;;;;;;;7.00;6.30;;;;;21.10;98938.00;;;;2070384;28;20219;-48
2022/03/31 01:13:48;;;;;;;8.80;6.40;;;;;21.10;98938.00;;;;2070221;28;20217;-48
2022/03/31 01:15:15;;;;;;;7.05;6.35;;;;;21.10;98927.00;;;;2070359;28;20202;-49
2022/03/31 01:16:15;;;;;;;7.25;6.55;;;;;21.10;98935.00;;;;2075237;28;20484;-48
2022/03/31 01:17:16;;;;;;;6.80;6.10;;;;;21.10;98935.00;;;;2078209;28;20225;-48
2022/03/31 01:18:16;;;;;;;7.07;5.70;;;;;21.10;98930.00;;;;2078168;28;21090;-48
2022/03/31 01:19:17;;;;;;;6.90;6.20;;;;;21.10;98924.00;;;;2078488;28;20735;-49
2022/03/31 01:20:21;;;;;;;7.00;5.90;;;;;21.10;98934.00;;;;2078432;28;20689;-49
2022/03/31 01:21:21;;;;;;;6.40;5.72;;;;;21.10;98926.00;;;;2078332;28;20805;-49
2022/03/31 01:22:24;;;;;;;6.70;6.00;;;;;21.10;98927.00;;;;2078409;28;20297;-48
2022/03/31 01:23:25;;;;;;;7.28;6.43;;;;;21.10;98922.00;;;;2077840;28;20302;-49
2022/03/31 01:24:25;;;;;;;7.10;6.00;;;;;21.10;98922.00;;;;2069886;28;20217;-48
2022/03/31 01:25:26;;;;;;;6.07;5.50;;;;;21.10;98927.00;;;;2077356;28;20727;-48
2022/03/31 01:26:26;;;;;;;6.37;5.77;;;;;21.10;98920.00;;;;2080068;28;20224;-49
2022/03/31 01:27:26;;;;;;;6.23;5.63;;;;;21.10;98926.00;;;;2079816;28;20937;-48
2022/03/31 01:28:27;;;;;;;6.00;5.37;;;;;21.10;98926.00;;;;2079749;28;20310;-49
2022/03/31 01:29:27;;;;;;;6.07;5.40;;;;;21.10;98928.00;;;;2078669;28;20244;-48
2022/03/31 01:30:28;;;;;;;6.20;5.60;;;;;21.10;98925.00;;;;2071287;28;20222;-49
2022/03/31 01:31:28;;;;;;;7.70;5.70;;;;;21.10;98927.00;;;;2079287;28;20251;-49
2022/03/31 01:32:28;;;;;;;6.97;5.57;;;;;21.10;98914.00;;;;2079392;28;20226;-49
2022/03/31 01:33:29;;;;;;;6.70;5.77;;;;;21.10;98926.00;;;;2078732;28;20229;-48
2022/03/31 01:34:29;;;;;;;6.40;5.73;;;;;21.10;98918.00;;;;2080010;28;20749;-48
2022/03/31 01:35:29;;;;;;;6.83;6.07;;;;;21.10;98916.00;;;;2079214;28;20692;-49
2022/03/31 01:36:30;;;;;;;6.83;6.00;;;;;21.10;98924.00;;;;2079866;28;20718;-49
2022/03/31 01:37:30;;;;;;;6.53;5.90;;;;;21.10;98919.00;;;;2079726;28;20213;-48
2022/03/31 01:38:31;;;;;;;6.83;5.80;;;;;21.10;98913.00;;;;2079996;28;20244;-49
2022/03/31 01:39:32;;;;;;;6.90;5.50;;;;;21.10;98920.00;;;;2080149;28;20217;-49
2022/03/31 01:40:34;;;;;;;7.10;6.22;;;;;21.10;98916.00;;;;2080153;28;20700;-49
2022/03/31 01:41:34;;;;;;;7.80;5.85;;;;;21.10;98918.00;;;;2079680;28;20217;-48
2022/03/31 01:42:34;;;;;;;7.50;6.00;;;;;21.10;98916.00;;;;2078893;28;20618;-48
2022/03/31 01:43:35;;;;;;;8.37;6.57;;;;;21.10;98902.00;;;;2079757;28;20291;-49
2022/03/31 01:44:35;;;;;;;6.43;5.40;;;;;21.10;98915.00;;;;2079196;28;20289;-49
2022/03/31 01:45:36;;;;;;;6.23;5.63;;;;;21.10;98917.00;;;;2078610;28;20717;-48
2022/03/31 01:46:36;;;;;;;5.67;5.07;;;;;21.00;98910.00;;;;2080001;28;20206;-48
2022/03/31 01:47:37;;;;;;;6.30;5.57;;;;;21.00;98914.00;;;;2079783;28;20236;-48
2022/03/31 01:48:37;;;;;;;5.80;5.30;;;;;21.00;98910.00;;;;2079729;28;20255;-48
2022/03/31 01:49:37;;;;;;;6.87;5.97;;;;;21.00;98913.00;;;;2079905;28;20284;-48
2022/03/31 01:50:38;;;;;;;5.63;5.13;;;;;21.00;98911.00;;;;2079907;28;20206;-49
2022/03/31 01:51:38;;;;;;;6.70;6.10;;;;;21.00;98915.00;;;;2079782;28;20237;-49
2022/03/31 01:52:39;;;;;;;6.33;5.47;;;;;21.00;98903.00;;;;2079914;28;20297;-48
2022/03/31 01:53:39;;;;;;;5.50;4.93;;;;;21.00;98844.00;;;;2079761;28;20228;-48
2022/03/31 01:54:41;;;;;;;6.73;6.00;;;;;21.00;98906.00;;;;2079915;28;21104;-48
2022/03/31 01:55:41;;;;;;;5.40;4.90;;;;;21.00;98901.00;;;;2079107;28;20245;-48
2022/03/31 01:56:42;;;;;;;6.40;5.60;;;;;21.00;98894.00;;;;2079761;28;20217;-49
2022/03/31 01:57:42;;;;;;;6.00;5.50;;;;;21.00;98903.00;;;;2079563;28;20213;-51
2022/03/31 01:58:43;;;;;;;6.33;5.17;;;;;21.00;98897.00;;;;2079673;28;20696;-49
2022/03/31 01:59:43;;;;;;;6.40;5.13;;;;;21.00;98900.00;;;;2079347;28;20218;-49
2022/03/31 02:00:44;;;;;;;7.13;5.63;;;;;21.00;98905.00;;;;2071762;28;20241;-48
2022/03/31 02:01:44;;;;;;;7.30;5.40;;;;;21.00;98897.00;;;;2071668;28;20210;-49
2022/03/31 02:02:44;;;;;;;5.80;5.20;;;;;21.00;98857.00;;;;2071805;28;20690;-49
2022/03/31 02:03:45;;;;;;;5.70;4.70;;;;;21.00;98894.00;;;;2070107;28;20866;-48
2022/03/31 02:04:45;;;;;;;5.97;5.37;;;;;21.00;98896.00;;;;2071403;28;20260;-48
2022/03/31 02:05:45;;;;;;;6.20;5.20;;;;;21.00;98914.00;;;;2069687;28;20216;-49
2022/03/31 02:06:45;;;;;;;6.13;5.53;;;;;21.00;98893.00;;;;2071364;28;20210;-48
2022/03/31 02:07:46;;;;;;;6.37;5.77;;;;;21.00;98891.00;;;;2071111;28;20241;-49
2022/03/31 02:08:46;;;;;;;5.50;5.00;;;;;21.00;98892.00;;;;2075751;28;20214;-49
2022/03/31 02:09:46;;;;;;;6.17;5.57;;;;;21.00;98888.00;;;;2079386;28;20218;-48
2022/03/31 02:10:48;;;;;;;5.07;4.60;;;;;21.00;98884.00;;;;2079125;28;20298;-49
2022/03/31 02:11:48;;;;;;;5.47;4.97;;;;;21.00;98891.00;;;;2079189;28;20212;-49
2022/03/31 02:12:49;;;;;;;6.50;5.30;;;;;21.00;98893.00;;;;2079036;28;20218;-49
2022/03/31 02:13:49;;;;;;;8.07;5.72;;;;;21.00;98887.00;;;;2079119;28;20641;-49
2022/03/31 02:14:50;;;;;;;7.50;5.20;;;;;21.00;98885.00;;;;2079161;28;20233;-49
2022/03/31 02:15:51;;;;;;;5.23;4.73;;;;;21.00;98882.00;;;;2078112;28;20205;-49
2022/03/31 02:16:51;;;;;;;5.82;5.22;;;;;21.00;98881.00;;;;2079234;28;20347;-49
2022/03/31 02:17:52;;;;;;;5.80;5.30;;;;;20.60;98882.00;;;;2079023;28;20210;-49
2022/03/31 02:18:53;;;;;;;5.07;4.67;;;;;21.00;98879.00;;;;2079040;28;20220;-49
2022/03/31 02:19:53;;;;;;;5.90;5.23;;;;;21.00;98874.00;;;;2079467;28;20661;-49
2022/03/31 02:20:53;;;;;;;6.30;5.33;;;;;21.00;98863.00;;;;2079603;28;21306;-49
2022/03/31 02:21:55;;;;;;;6.47;5.60;;;;;21.00;98871.00;;;;2079702;28;20598;-49
2022/03/31 02:22:55;;;;;;;5.50;5.00;;;;;21.00;98873.00;;;;2079540;28;20624;-49
2022/03/31 02:23:56;;;;;;;6.53;5.27;;;;;21.00;98867.00;;;;2079768;28;20216;-49
2022/03/31 02:24:56;;;;;;;6.07;5.57;;;;;21.00;98862.00;;;;2079545;28;20225;-49
2022/03/31 02:25:56;;;;;;;7.73;5.70;;;;;21.00;98861.00;;;;2078849;28;20700;-49
2022/03/31 02:26:57;;;;;;;5.90;5.30;;;;;21.00;98864.00;;;;2079523;28;20210;-49
2022/03/31 02:27:57;;;;;;;6.13;5.10;;;;;21.00;98862.00;;;;2078886;28;20237;-49
2022/03/31 02:28:58;;;;;;;5.57;5.07;;;;;21.00;98860.00;;;;2078328;28;20248;-49
2022/03/31 02:29:58;;;;;;;6.27;5.60;;;;;21.00;98864.00;;;;2079070;28;20209;-49
2022/03/31 02:30:59;;;;;;;5.20;4.70;;;;;21.00;98857.00;;;;2079143;28;20228;-49
2022/03/31 02:31:59;;;;;;;6.50;5.33;;;;;21.00;98866.00;;;;2079031;28;20464;-49
2022/03/31 02:32:59;;;;;;;5.57;4.73;;;;;21.00;98862.00;;;;2077757;28;20229;-49
2022/03/31 02:34:00;;;;;;;8.80;5.20;;;;;20.90;98860.00;;;;2078845;28;20259;-49
2022/03/31 02:35:00;;;;;;;6.00;4.80;;;;;20.90;98860.00;;;;2079299;28;20221;-49
2022/03/31 02:36:00;;;;;;;6.97;5.57;;;;;20.90;98863.00;;;;2078975;28;20222;-49
2022/03/31 02:37:01;;;;;;;6.63;4.73;;;;;20.90;98865.00;;;;2079353;28;20260;-49
2022/03/31 02:38:02;;;;;;;5.03;4.53;;;;;20.90;98859.00;;;;2079570;28;20213;-49
2022/03/31 02:39:02;;;;;;;5.37;4.87;;;;;20.90;98855.00;;;;2079604;28;21047;-49
2022/03/31 02:40:04;;;;;;;5.20;4.70;;;;;20.90;98858.00;;;;2079047;28;20312;-49
2022/03/31 02:41:05;;;;;;;5.97;5.15;;;;;20.90;98852.00;;;;2079305;28;20229;-49
2022/03/31 02:42:05;;;;;;;5.17;4.70;;;;;20.90;98858.00;;;;2078529;28;20400;-49
2022/03/31 02:43:05;;;;;;;5.73;5.13;;;;;20.90;98851.00;;;;2079171;28;21037;-49
2022/03/31 02:44:06;;;;;;;5.10;4.70;;;;;20.90;98850.00;;;;2079066;28;20715;-49
2022/03/31 02:45:07;;;;;;;5.80;5.20;;;;;20.90;98850.00;;;;2075820;28;20578;-49
2022/03/31 02:46:08;;;;;;;7.15;5.20;;;;;20.90;98852.00;;;;2070150;28;20225;-49
2022/03/31 02:47:09;;;;;;;5.30;4.80;;;;;20.90;98852.00;;;;2071174;28;20774;-49
2022/03/31 02:48:09;;;;;;;5.30;4.80;;;;;20.90;98844.00;;;;2070816;28;20247;-49
2022/03/31 02:49:10;;;;;;;6.17;5.13;;;;;20.90;98847.00;;;;2071240;28;20522;-49
2022/03/31 02:50:11;;;;;;;6.05;5.10;;;;;20.90;98846.00;;;;2071132;28;20276;-49
2022/03/31 02:51:11;;;;;;;5.70;5.20;;;;;20.90;98848.00;;;;2072743;28;20282;-49
2022/03/31 02:52:11;;;;;;;5.77;5.00;;;;;20.90;98846.00;;;;2073241;28;20226;-49
2022/03/31 02:55:49;;;;;;;6.30;4.93;;;;;20.90;98850.00;;;;2078758;28;20324;-49
2022/03/31 02:56:50;;;;;;;6.57;5.50;;;;;20.90;98845.00;;;;2079356;28;20214;-49
2022/03/31 02:57:51;;;;;;;5.47;4.97;;;;;20.90;98845.00;;;;2079641;28;20221;-48
2022/03/31 02:58:51;;;;;;;5.57;5.00;;;;;20.90;98837.00;;;;2073962;28;20229;-50
2022/03/31 02:59:51;;;;;;;5.63;5.03;;;;;20.90;98836.00;;;;2077756;28;20209;-49
2022/03/31 03:00:52;;;;;;;5.40;4.67;;;;;20.90;98834.00;;;;2076239;28;20241;-49
2022/03/31 03:01:52;;;;;;;5.67;5.13;;;;;20.90;98835.00;;;;2078505;28;20228;-49
2022/03/31 03:02:53;;;;;;;5.50;4.80;;;;;20.90;98834.00;;;;2079041;28;20284;-50
2022/03/31 03:03:55;;;;;;;5.18;4.78;;;;;20.90;98838.00;;;;2079508;28;20577;-49
2022/03/31 03:04:55;;;;;;;6.47;4.50;;;;;20.90;98833.00;;;;2076018;28;20673;-48
2022/03/31 03:05:56;;;;;;;6.93;4.90;;;;;20.90;98832.00;;;;2070880;28;20259;-49
2022/03/31 03:06:56;;;;;;;5.40;4.90;;;;;20.90;98837.00;;;;2074968;28;20228;-49
2022/03/31 03:07:56;;;;;;;5.33;4.83;;;;;20.90;98833.00;;;;2071602;28;20210;-49
2022/03/31 03:08:57;;;;;;;6.10;5.00;;;;;20.90;98829.00;;;;2071547;28;20222;-49
2022/03/31 03:09:58;;;;;;;4.95;4.45;;;;;20.90;98825.00;;;;2073616;28;20202;-48
2022/03/31 03:10:58;;;;;;;5.27;4.77;;;;;20.90;98819.00;;;;2074544;28;20696;-49
2022/03/31 03:11:58;;;;;;;5.60;4.97;;;;;20.90;98819.00;;;;2070587;28;20206;-48
2022/03/31 03:12:59;;;;;;;5.00;4.23;;;;;20.90;98822.00;;;;2070540;28;20226;-49
2022/03/31 03:13:59;;;;;;;4.83;4.33;;;;;20.90;98822.00;;;;2071684;28;20265;-49
2022/03/31 03:14:59;;;;;;;6.07;4.50;;;;;20.90;98819.00;;;;2078120;28;20221;-49
2022/03/31 03:16:01;;;;;;;5.90;5.30;;;;;20.90;98818.00;;;;2073353;28;20246;-49
2022/03/31 03:17:02;;;;;;;5.72;5.00;;;;;20.90;98820.00;;;;2074461;28;20221;-48
2022/03/31 03:18:02;;;;;;;5.37;4.90;;;;;20.90;98813.00;;;;2079460;28;20267;-49
2022/03/31 03:19:03;;;;;;;5.30;4.80;;;;;20.90;98813.00;;;;2078524;28;20229;-48
2022/03/31 03:20:03;;;;;;;5.90;4.37;;;;;20.90;98816.00;;;;2075614;28;20229;-48
2022/03/31 03:21:04;;;;;;;5.60;5.10;;;;;20.90;98815.00;;;;2079473;28;20213;-48
2022/03/31 03:22:04;;;;;;;5.83;5.00;;;;;20.90;98815.00;;;;2079040;28;20221;-49
2022/03/31 03:23:05;;;;;;;5.60;5.07;;;;;20.90;98814.00;;;;2078447;28;20248;-49
2022/03/31 03:24:05;;;;;;;4.63;4.23;;;;;20.90;98810.00;;;;2076756;28;20232;-49
2022/03/31 03:25:06;;;;;;;5.17;4.70;;;;;20.90;98809.00;;;;2072942;28;20233;-49
2022/03/31 03:26:07;;;;;;;4.60;3.80;;;;;20.90;98807.00;;;;2073978;28;20213;-48
2022/03/31 03:27:07;;;;;;;4.97;4.57;;;;;20.80;98808.00;;;;2074683;28;20594;-48
2022/03/31 03:28:08;;;;;;;5.57;5.07;;;;;20.80;98803.00;;;;2073111;28;20241;-47
2022/03/31 03:29:08;;;;;;;5.37;4.70;;;;;20.80;98816.00;;;;2072421;28;20218;-48
2022/03/31 03:30:09;;;;;;;5.07;4.57;;;;;20.80;98809.00;;;;2070640;28;20645;-48
2022/03/31 03:31:09;;;;;;;5.23;4.70;;;;;20.80;98809.00;;;;2078574;28;20628;-48
2022/03/31 03:32:10;;;;;;;5.40;4.90;;;;;20.80;98809.00;;;;2071235;28;20994;-48
2022/03/31 03:33:10;;;;;;;6.10;5.00;;;;;20.80;98811.00;;;;2074646;28;20271;-48
2022/03/31 03:34:10;;;;;;;5.10;4.60;;;;;20.80;98815.00;;;;2077629;28;20240;-48
2022/03/31 03:35:11;;;;;;;5.20;4.70;;;;;20.80;98812.00;;;;2078618;28;20630;-48
2022/03/31 03:36:14;;;;;;;5.00;4.60;;;;;20.80;98814.00;;;;2073553;28;20214;-48
2022/03/31 03:37:15;;;;;;;4.88;4.40;;;;;20.80;98816.00;;;;2070351;28;20535;-48
2022/03/31 03:38:15;;;;;;;4.90;4.47;;;;;20.80;98811.00;;;;2074345;28;20226;-48
2022/03/31 03:39:16;;;;;;;5.80;4.67;;;;;20.80;98812.00;;;;2075731;28;20275;-48
2022/03/31 03:40:16;;;;;;;5.33;4.73;;;;;20.80;98811.00;;;;2077806;28;21110;-48
2022/03/31 03:41:16;;;;;;;5.13;4.70;;;;;20.80;98815.00;;;;2071220;28;20729;-49
2022/03/31 03:42:17;;;;;;;5.20;4.70;;;;;20.80;98815.00;;;;2077540;28;20232;-49
2022/03/31 03:43:17;;;;;;;6.27;5.20;;;;;20.80;98812.00;;;;2077982;28;20217;-48
2022/03/31 03:44:17;;;;;;;6.20;5.17;;;;;20.80;98815.00;;;;2070953;28;20225;-48
2022/03/31 03:45:18;;;;;;;4.97;4.57;;;;;20.80;98810.00;;;;2070781;28;20224;-48
2022/03/31 03:46:18;;;;;;;5.47;4.97;;;;;20.80;98810.00;;;;2077674;28;20216;-48
2022/03/31 03:47:18;;;;;;;5.20;4.70;;;;;20.80;98816.00;;;;2074670;28;20214;-48
2022/03/31 03:48:21;;;;;;;5.43;4.93;;;;;20.80;98818.00;;;;2075997;28;20217;-48
2022/03/31 03:49:21;;;;;;;6.18;5.03;;;;;20.80;98814.00;;;;2079095;28;20352;-48
2022/03/31 03:50:22;;;;;;;5.87;5.27;;;;;20.80;98806.00;;;;2075692;28;20854;-48
2022/03/31 03:51:25;;;;;;;4.80;4.40;;;;;20.80;98815.00;;;;2075576;28;20221;-48
2022/03/31 03:52:25;;;;;;;5.07;4.57;;;;;20.80;98808.00;;;;2076346;28;20237;-48
2022/03/31 03:53:25;;;;;;;5.17;4.67;;;;;20.80;98812.00;;;;2071058;28;20229;-48
2022/03/31 03:54:27;;;;;;;5.07;4.60;;;;;20.80;98813.00;;;;2078088;28;20210;-48
2022/03/31 03:55:27;;;;;;;5.43;4.78;;;;;20.80;98812.00;;;;2070469;28;20264;-49
2022/03/31 03:56:28;;;;;;;5.10;4.63;;;;;20.80;98800.00;;;;2070893;28;20240;-48
2022/03/31 03:57:28;;;;;;;6.33;5.30;;;;;20.80;98812.00;;;;2070298;28;20511;-49
2022/03/31 03:58:28;;;;;;;5.00;4.33;;;;;20.80;98807.00;;;;2070808;28;20222;-49
2022/03/31 03:59:29;;;;;;;5.60;5.00;;;;;20.80;98812.00;;;;2070528;28;20244;-54
2022/03/31 04:00:29;;;;;;;5.53;4.93;;;;;20.80;98808.00;;;;2070956;28;20233;-50
2022/03/31 04:01:30;;;;;;;5.30;4.80;;;;;20.80;98813.00;;;;2070835;28;20214;-50
2022/03/31 04:02:30;;;;;;;5.93;5.43;;;;;20.80;98807.00;;;;2070282;28;20222;-49
2022/03/31 04:03:30;;;;;;;6.17;5.57;;;;;20.80;98809.00;;;;2070409;28;20234;-49
2022/03/31 04:04:31;;;;;;;6.03;4.83;;;;;20.80;98807.00;;;;2070713;28;20209;-49
2022/03/31 04:05:31;;;;;;;4.30;3.90;;;;;20.80;98805.00;;;;2070185;28;20207;-49
2022/03/31 04:06:31;;;;;;;5.13;4.67;;;;;20.80;98808.00;;;;2070756;28;20226;-49
2022/03/31 04:07:32;;;;;;;5.07;4.57;;;;;20.80;98814.00;;;;2070598;28;20218;-49
2022/03/31 04:08:32;;;;;;;5.50;4.77;;;;;20.80;98805.00;;;;2071020;28;20206;-49
2022/03/31 04:09:32;;;;;;;4.97;4.57;;;;;20.80;98796.00;;;;2070659;28;20257;-49
2022/03/31 04:10:34;;;;;;;5.37;4.87;;;;;20.80;98810.00;;;;2070940;28;20214;-49
2022/03/31 04:11:34;;;;;;;5.82;5.30;;;;;20.80;98804.00;;;;2070858;28;20210;-49
2022/03/31 04:12:34;;;;;;;5.37;4.70;;;;;20.80;98808.00;;;;2068654;28;20325;-49
2022/03/31 04:13:35;;;;;;;5.20;4.70;;;;;20.80;98804.00;;;;2070864;28;20229;-49
2022/03/31 04:14:35;;;;;;;4.63;4.23;;;;;20.80;98817.00;;;;2070482;28;20225;-49
2022/03/31 04:15:35;;;;;;;4.80;4.30;;;;;20.80;98802.00;;;;2070195;28;20237;-49
2022/03/31 04:16:36;;;;;;;5.93;5.33;;;;;20.80;98807.00;;;;2070802;28;20293;-48
2022/03/31 04:17:36;;;;;;;5.50;4.67;;;;;20.80;98801.00;;;;2070721;28;20260;-49
2022/03/31 04:18:36;;;;;;;5.87;5.17;;;;;20.80;98806.00;;;;2070721;28;20284;-49
2022/03/31 04:19:37;;;;;;;5.90;5.30;;;;;20.80;98810.00;;;;2070859;28;20214;-49
2022/03/31 04:20:37;;;;;;;5.00;4.50;;;;;20.80;98808.00;;;;2070704;28;20244;-49
2022/03/31 04:21:38;;;;;;;4.60;4.20;;;;;20.80;98812.00;;;;2070833;28;20210;-49
2022/03/31 04:22:38;;;;;;;5.23;4.80;;;;;20.80;98804.00;;;;2070567;28;20210;-49
2022/03/31 04:23:38;;;;;;;5.70;5.13;;;;;20.70;98806.00;;;;2069615;28;20218;-49
2022/03/31 04:24:39;;;;;;;5.40;4.90;;;;;20.70;98805.00;;;;2070625;28;20210;-49
2022/03/31 04:25:39;;;;;;;5.40;4.90;;;;;20.70;98799.00;;;;2070067;28;20225;-48
2022/03/31 04:26:40;;;;;;;5.50;5.00;;;;;20.80;98805.00;;;;2070793;28;20481;-49
2022/03/31 04:27:40;;;;;;;5.23;4.77;;;;;20.80;98799.00;;;;2070709;28;20233;-48
2022/03/31 04:28:40;;;;;;;4.53;4.13;;;;;20.70;98799.00;;;;2070646;28;20206;-49
2022/03/31 04:29:42;;;;;;;4.93;4.53;;;;;20.70;98798.00;;;;2070670;28;20213;-49
2022/03/31 04:30:42;;;;;;;5.78;4.85;;;;;20.70;98805.00;;;;2070563;28;20213;-49
2022/03/31 04:31:43;;;;;;;5.40;4.90;;;;;20.70;98801.00;;;;2070709;28;20229;-49
2022/03/31 04:32:43;;;;;;;5.32;4.90;;;;;20.70;98802.00;;;;2070282;28;20244;-48
2022/03/31 04:33:44;;;;;;;5.10;4.60;;;;;20.50;98803.00;;;;2070531;28;20214;-49
2022/03/31 04:34:44;;;;;;;5.20;4.70;;;;;20.70;98808.00;;;;2070762;28;20212;-48
2022/03/31 04:35:44;;;;;;;5.80;5.30;;;;;20.70;98799.00;;;;2070041;28;20217;-48
2022/03/31 04:36:45;;;;;;;5.20;4.77;;;;;20.70;98801.00;;;;2070365;28;20792;-49
2022/03/31 04:37:46;;;;;;;5.33;4.83;;;;;20.70;98795.00;;;;2070390;28;20210;-49
2022/03/31 04:38:46;;;;;;;6.00;5.07;;;;;20.70;98800.00;;;;2070560;28;20503;-49
2022/03/31 04:39:46;;;;;;;5.30;4.90;;;;;20.70;98799.00;;;;2070716;28;20230;-49
2022/03/31 04:40:47;;;;;;;5.20;4.70;;;;;20.70;98800.00;;;;2070651;28;20259;-49
2022/03/31 04:41:47;;;;;;;5.70;5.20;;;;;20.70;98794.00;;;;2070569;28;20210;-49
2022/03/31 04:42:47;;;;;;;4.80;4.40;;;;;20.70;98792.00;;;;2070471;28;20233;-49
2022/03/31 04:43:48;;;;;;;5.10;4.60;;;;;20.70;98798.00;;;;2070517;28;20589;-48
2022/03/31 04:44:48;;;;;;;5.80;5.30;;;;;20.70;98796.00;;;;2064528;28;20255;-49
2022/03/31 04:45:48;;;;;;;5.30;4.80;;;;;20.70;98793.00;;;;2076833;28;20658;-49
2022/03/31 04:46:49;;;;;;;5.07;4.57;;;;;20.70;98793.00;;;;2077956;28;20221;-49
2022/03/31 04:47:49;;;;;;;5.63;5.13;;;;;20.70;98786.00;;;;2077963;28;20206;-49
2022/03/31 04:48:50;;;;;;;5.87;5.27;;;;;20.70;98794.00;;;;2078640;28;20222;-49
2022/03/31 04:49:50;;;;;;;6.37;5.40;;;;;20.70;98792.00;;;;2078831;28;20296;-49
2022/03/31 04:50:50;;;;;;;6.20;5.60;;;;;20.70;98814.00;;;;2078684;28;20206;-49
2022/03/31 04:51:51;;;;;;;5.73;5.23;;;;;20.70;98797.00;;;;2078858;28;20210;-48
2022/03/31 04:52:51;;;;;;;5.77;5.10;;;;;20.70;98797.00;;;;2077728;28;20222;-49
2022/03/31 04:53:51;;;;;;;5.87;5.27;;;;;20.70;98806.00;;;;2077809;28;20240;-48
2022/03/31 04:54:52;;;;;;;6.73;5.13;;;;;20.70;98801.00;;;;2078652;28;20578;-49
2022/03/31 04:55:52;;;;;;;6.93;5.20;;;;;20.70;98794.00;;;;2076665;28;20736;-49
2022/03/31 04:56:52;;;;;;;5.57;5.07;;;;;20.70;98799.00;;;;2076623;28;20201;-48
2022/03/31 04:57:53;;;;;;;5.50;4.90;;;;;20.70;98794.00;;;;2078981;28;20205;-48
2022/03/31 04:58:53;;;;;;;5.93;5.33;;;;;20.70;98797.00;;;;2079093;28;20213;-48
2022/03/31 04:59:53;;;;;;;5.33;4.83;;;;;20.70;98795.00;;;;2080651;28;20304;-49
2022/03/31 05:00:54;;;;;;;5.77;5.27;;;;;20.70;98788.00;;;;2078631;28;20209;-48
2022/03/31 05:01:54;;;;;;;5.67;5.00;;;;;20.60;98792.00;;;;2071886;28;20214;-48
2022/03/31 05:02:54;;;;;;;5.43;4.93;;;;;20.60;98791.00;;;;2079608;28;20314;-49
2022/03/31 05:03:55;;;;;;;5.30;4.80;;;;;20.70;98787.00;;;;2080339;28;20217;-48
2022/03/31 05:04:55;;;;;;;5.40;4.90;;;;;20.70;98784.00;;;;2080337;28;20724;-49
2022/03/31 05:05:55;;;;;;;6.53;5.43;;;;;20.60;98782.00;;;;2079682;28;20889;-49
2022/03/31 05:06:56;;;;;;;5.33;4.80;;;;;20.70;98786.00;;;;2079970;28;20209;-48